Time;durP1;ratioP1;P1;durP2;ratioP2;P2;SDS_P1;SDS_P2;PMS_P1;PMS_P2;Temp;Humidity;BMP_temperature;BMP_pressure;BME280_temperature;BME280_humidity;BME280_pressure;Samples;Min_cycle;Max_cycle;Signal;HPM_P1;HPM_P2
2022/09/05 00:02:00;;;;;;;7.23;4.07;;;;;;;;;;5071529;28;20087;-59
2022/09/05 00:04:45;;;;;;;6.50;3.60;;;;;;;;;;5071143;28;20129;-59
2022/09/05 00:07:11;;;;;;;7.27;4.47;;;;;;;;;;5069488;28;20048;-59
2022/09/05 00:09:37;;;;;;;6.13;3.80;;;;;;;;;;5071240;28;20140;-59
2022/09/05 00:12:05;;;;;;;7.83;3.93;;;;;;;;;;5071059;28;20606;-59
2022/09/05 00:14:33;;;;;;;8.67;5.00;;;;;;;;;;5059976;28;20048;-59
2022/09/05 00:17:18;;;;;;;7.63;4.53;;;;;;;;;;5067396;28;20089;-59
2022/09/05 00:20:03;;;;;;;12.27;5.00;;;;;;;;;;5060115;28;20412;-59
2022/09/05 00:22:29;;;;;;;5.87;4.37;;;;;;;;;;5070982;28;20051;-59
2022/09/05 00:24:57;;;;;;;8.73;4.60;;;;;;;;;;5071002;28;20102;-59
2022/09/05 00:27:29;;;;;;;6.93;4.17;;;;;;;;;;5071395;28;20048;-59
2022/09/05 00:30:06;;;;;;;6.83;4.67;;;;;;;;;;5071274;28;20072;-59
2022/09/05 00:32:40;;;;;;;7.63;4.60;;;;;;;;;;5066081;28;20079;-59
2022/09/05 00:35:21;;;;;;;9.50;5.70;;;;;;;;;;5062945;28;20048;-59
2022/09/05 00:37:48;;;;;;;5.27;4.23;;;;;;;;;;5064426;28;20044;-59
2022/09/05 00:40:24;;;;;;;6.17;4.23;;;;;;;;;;5070421;28;20040;-59
2022/09/05 00:42:59;;;;;;;5.80;4.17;;;;;;;;;;5064320;28;20056;-59
2022/09/05 00:45:47;;;;;;;4.87;3.87;;;;;;;;;;5066669;28;20044;-59
2022/09/05 00:48:31;;;;;;;6.23;4.07;;;;;;;;;;5062707;28;20045;-59
2022/09/05 00:51:16;;;;;;;6.80;4.70;;;;;;;;;;5069188;28;20415;-59
2022/09/05 00:53:42;;;;;;;5.97;4.47;;;;;;;;;;5054718;28;20106;-59
2022/09/05 00:56:35;;;;;;;9.53;4.80;;;;;;;;;;5070215;28;20502;-59
2022/09/05 00:59:20;;;;;;;5.88;4.80;;;;;;;;;;5070804;28;20056;-59
2022/09/05 01:02:01;;;;;;;11.47;5.50;;;;;;;;;;5066854;28;20080;-59
2022/09/05 01:04:46;;;;;;;9.03;5.83;;;;;;;;;;5066532;28;20106;-59
2022/09/05 01:07:12;;;;;;;7.23;4.87;;;;;;;;;;5067148;28;20055;-59
2022/09/05 01:09:49;;;;;;;8.83;4.43;;;;;;;;;;5069966;28;20048;-59
2022/09/05 01:12:15;;;;;;;6.37;5.67;;;;;;;;;;5067326;28;20048;-59
2022/09/05 01:15:00;;;;;;;7.00;5.20;;;;;;;;;;5070407;28;20114;-59
2022/09/05 01:17:45;;;;;;;7.37;4.80;;;;;;;;;;5070180;28;20037;-59
2022/09/05 01:20:20;;;;;;;6.97;4.80;;;;;;;;;;5064823;28;20039;-59
2022/09/05 01:22:58;;;;;;;7.77;5.13;;;;;;;;;;5070162;28;20048;-59
2022/09/05 01:25:38;;;;;;;9.87;5.23;;;;;;;;;;5058315;28;20047;-59
2022/09/05 01:28:12;;;;;;;9.30;4.83;;;;;;;;;;5064111;28;20055;-59
2022/09/05 01:30:38;;;;;;;6.87;5.10;;;;;;;;;;5061556;28;20116;-60
2022/09/05 01:33:17;;;;;;;6.63;5.20;;;;;;;;;;5065486;28;20124;-59
2022/09/05 01:35:56;;;;;;;8.43;5.70;;;;;;;;;;5068122;28;20106;-60
2022/09/05 01:38:41;;;;;;;7.60;5.23;;;;;;;;;;5069153;28;20044;-60
2022/09/05 01:41:18;;;;;;;6.67;4.80;;;;;;;;;;5064322;28;20036;-60
2022/09/05 01:44:03;;;;;;;9.47;5.67;;;;;;;;;;5059814;28;20500;-59
2022/09/05 01:46:42;;;;;;;8.30;5.60;;;;;;;;;;5062256;28;20226;-60
2022/09/05 01:49:24;;;;;;;7.97;5.70;;;;;;;;;;5055231;28;20418;-60
2022/09/05 01:52:05;;;;;;;9.83;6.13;;;;;;;;;;5061645;28;20143;-59
2022/09/05 01:54:45;;;;;;;6.00;5.43;;;;;;;;;;5069727;28;20467;-60
2022/09/05 01:57:35;;;;;;;9.40;5.80;;;;;;;;;;5067831;28;20047;-60
2022/09/05 02:00:04;;;;;;;6.00;5.37;;;;;;;;;;5061303;28;20052;-60
2022/09/05 02:02:36;;;;;;;10.63;6.00;;;;;;;;;;5061540;28;20513;-60
2022/09/05 02:05:17;;;;;;;8.40;6.80;;;;;;;;;;5069399;28;20048;-60
2022/09/05 02:08:02;;;;;;;8.73;6.33;;;;;;;;;;5069506;28;20052;-60
2022/09/05 02:10:40;;;;;;;7.40;6.60;;;;;;;;;;5069237;28;20063;-60
2022/09/05 02:13:15;;;;;;;7.97;5.63;;;;;;;;;;5060947;28;20703;-60
2022/09/05 02:16:05;;;;;;;8.80;6.03;;;;;;;;;;5068380;28;20041;-60
2022/09/05 02:18:37;;;;;;;8.63;6.33;;;;;;;;;;5049366;28;20407;-60
2022/09/05 02:21:08;;;;;;;8.07;6.40;;;;;;;;;;5067632;28;20468;-60
2022/09/05 02:23:45;;;;;;;9.67;6.37;;;;;;;;;;5068930;28;20037;-60
2022/09/05 02:26:16;;;;;;;9.83;6.23;;;;;;;;;;5060063;28;20097;-60
2022/09/05 02:28:59;;;;;;;7.87;6.73;;;;;;;;;;5067107;28;20132;-60
2022/09/05 02:31:44;;;;;;;8.15;6.60;;;;;;;;;;5060767;28;20041;-60
2022/09/05 02:34:19;;;;;;;9.17;6.37;;;;;;;;;;5066880;28;20045;-60
2022/09/05 02:36:48;;;;;;;8.97;6.80;;;;;;;;;;5066887;28;20056;-60
2022/09/05 02:39:20;;;;;;;8.13;6.23;;;;;;;;;;5067934;28;20407;-60
2022/09/05 02:42:06;;;;;;;9.03;7.10;;;;;;;;;;5066539;28;20511;-60
2022/09/05 02:44:32;;;;;;;7.43;6.27;;;;;;;;;;5051225;28;20095;-60
2022/09/05 02:47:08;;;;;;;9.50;7.80;;;;;;;;;;5059636;28;20076;-60
2022/09/05 02:49:44;;;;;;;7.90;6.70;;;;;;;;;;5060116;28;20514;-60
2022/09/05 02:52:13;;;;;;;8.63;7.30;;;;;;;;;;5067163;28;20049;-60
2022/09/05 02:54:41;;;;;;;9.50;8.30;;;;;;;;;;5067408;28;20047;-60
2022/09/05 02:57:20;;;;;;;11.07;6.77;;;;;;;;;;5067778;28;20583;-60
2022/09/05 02:59:55;;;;;;;11.20;7.90;;;;;;;;;;5067975;28;20430;-60
2022/09/05 03:02:40;;;;;;;9.93;7.43;;;;;;;;;;5068124;28;20044;-60
2022/09/05 03:05:06;;;;;;;10.63;7.67;;;;;;;;;;5062949;28;20056;-60
2022/09/05 03:07:46;;;;;;;8.13;7.20;;;;;;;;;;5062197;28;20037;-60
2022/09/05 03:10:18;;;;;;;9.47;7.07;;;;;;;;;;5067521;28;20411;-60
2022/09/05 03:12:47;;;;;;;8.77;7.43;;;;;;;;;;5067337;28;20056;-60
2022/09/05 03:15:23;;;;;;;10.00;7.40;;;;;;;;;;5067529;28;20178;-60
2022/09/05 03:18:08;;;;;;;8.40;7.43;;;;;;;;;;5060525;28;20552;-60
2022/09/05 03:20:50;;;;;;;10.87;7.93;;;;;;;;;;5060750;28;20041;-60
2022/09/05 03:23:27;;;;;;;9.37;8.40;;;;;;;;;;5067615;28;20044;-60
2022/09/05 03:26:01;;;;;;;8.37;7.40;;;;;;;;;;5067364;28;20128;-60
2022/09/05 03:28:28;;;;;;;8.43;7.53;;;;;;;;;;5059877;28;20048;-59
2022/09/05 03:30:57;;;;;;;8.17;7.37;;;;;;;;;;5067180;28;20437;-60
2022/09/05 03:33:41;;;;;;;8.53;7.57;;;;;;;;;;5054926;28;20049;-60
2022/09/05 03:36:26;;;;;;;11.97;7.80;;;;;;;;;;5053978;28;20115;-60
2022/09/05 03:39:01;;;;;;;11.10;7.93;;;;;;;;;;5067469;28;20048;-60
2022/09/05 03:41:30;;;;;;;8.83;7.77;;;;;;;;;;5067042;28;20522;-60
2022/09/05 03:44:02;;;;;;;8.97;8.07;;;;;;;;;;5066661;28;20045;-60
2022/09/05 03:46:51;;;;;;;11.13;7.90;;;;;;;;;;5067590;28;20518;-60
2022/09/05 03:49:19;;;;;;;9.50;7.87;;;;;;;;;;5067363;28;20418;-60
2022/09/05 03:52:12;;;;;;;10.10;7.63;;;;;;;;;;5067610;28;20053;-60
2022/09/05 03:55:14;;;;;;;10.93;7.93;;;;;;;;;;5058537;28;20044;-60
2022/09/05 03:57:58;;;;;;;9.03;7.87;;;;;;;;;;5005967;28;20056;-60
2022/09/05 04:00:32;;;;;;;9.47;8.03;;;;;;;;;;5062610;28;20060;-60
2022/09/05 04:03:10;;;;;;;8.80;7.87;;;;;;;;;;5058872;28;20044;-60
2022/09/05 04:05:38;;;;;;;13.60;8.50;;;;;;;;;;5059533;28;20398;-60
2022/09/05 04:08:22;;;;;;;9.93;8.20;;;;;;;;;;5068217;28;20091;-60
2022/09/05 04:10:58;;;;;;;9.53;8.53;;;;;;;;;;5067052;28;20049;-60
2022/09/05 04:13:31;;;;;;;10.23;8.60;;;;;;;;;;5058776;28;20041;-60
2022/09/05 04:16:07;;;;;;;11.75;8.85;;;;;;;;;;5067231;28;20086;-60
2022/09/05 04:18:42;;;;;;;13.27;9.10;;;;;;;;;;5063988;28;20048;-60
2022/09/05 04:21:16;;;;;;;10.77;9.17;;;;;;;;;;5064534;28;20102;-60
2022/09/05 04:23:42;;;;;;;11.13;8.30;;;;;;;;;;5066684;28;20048;-59
2022/09/05 04:26:20;;;;;;;15.20;8.77;;;;;;;;;;5058973;28;20037;-59
2022/09/05 04:28:58;;;;;;;11.87;8.90;;;;;;;;;;5056944;28;20047;-60
2022/09/05 04:31:27;;;;;;;10.60;8.00;;;;;;;;;;5066274;28;20068;-59
2022/09/05 04:34:12;;;;;;;10.23;9.10;;;;;;;;;;5066538;28;20056;-59
2022/09/05 04:36:39;;;;;;;11.53;9.03;;;;;;;;;;5064677;28;20047;-60
2022/09/05 04:39:08;;;;;;;12.27;8.27;;;;;;;;;;5064746;28;20128;-60
2022/09/05 04:41:40;;;;;;;10.20;8.83;;;;;;;;;;5069670;28;20093;-60
2022/09/05 04:44:25;;;;;;;11.63;10.37;;;;;;;;;;5071479;28;20102;-60
2022/09/05 04:46:55;;;;;;;10.70;9.00;;;;;;;;;;5070876;28;20141;-60
2022/09/05 04:49:29;;;;;;;10.50;8.63;;;;;;;;;;5070638;28;20166;-60
2022/09/05 04:52:14;;;;;;;9.67;8.37;;;;;;;;;;5055172;28;20041;-60
2022/09/05 04:54:45;;;;;;;11.30;8.50;;;;;;;;;;5060076;28;20426;-60
2022/09/05 04:57:24;;;;;;;10.97;8.83;;;;;;;;;;5065403;28;20041;-61
2022/09/05 04:59:52;;;;;;;10.63;8.90;;;;;;;;;;5069886;28;20502;-61
2022/09/05 05:02:21;;;;;;;10.20;8.67;;;;;;;;;;5063526;28;20041;-60
2022/09/05 05:04:48;;;;;;;10.23;8.40;;;;;;;;;;5063438;28;20136;-60
2022/09/05 05:07:17;;;;;;;10.30;8.67;;;;;;;;;;5063879;28;20128;-60
2022/09/05 05:09:47;;;;;;;10.27;9.20;;;;;;;;;;5069593;28;20048;-60
2022/09/05 05:12:36;;;;;;;11.77;8.73;;;;;;;;;;5066542;28;20128;-60
2022/09/05 05:15:11;;;;;;;10.13;8.97;;;;;;;;;;5064076;28;20044;-60
2022/09/05 05:17:37;;;;;;;10.40;9.27;;;;;;;;;;5061049;28;20515;-60
2022/09/05 05:20:09;;;;;;;10.37;9.23;;;;;;;;;;5065610;28;20044;-60
2022/09/05 05:22:35;;;;;;;13.23;9.63;;;;;;;;;;5066813;28;20048;-60
2022/09/05 05:25:02;;;;;;;13.00;9.97;;;;;;;;;;5061596;28;20032;-60
2022/09/05 05:27:37;;;;;;;12.83;8.97;;;;;;;;;;5061223;28;20044;-60
2022/09/05 05:30:12;;;;;;;10.53;9.10;;;;;;;;;;5065385;28;20090;-61
2022/09/05 05:32:43;;;;;;;10.60;9.27;;;;;;;;;;5061651;28;20069;-60
2022/09/05 05:35:14;;;;;;;10.17;9.00;;;;;;;;;;5061909;28;20045;-60
2022/09/05 05:37:43;;;;;;;10.07;9.00;;;;;;;;;;5066912;28;20043;-60
2022/09/05 05:40:23;;;;;;;10.77;9.67;;;;;;;;;;5068694;28;20047;-60
2022/09/05 05:42:50;;;;;;;11.40;9.57;;;;;;;;;;5060849;28;20055;-60
2022/09/05 05:45:27;;;;;;;12.10;9.67;;;;;;;;;;5069663;28;20555;-60
2022/09/05 05:47:55;;;;;;;13.60;11.00;;;;;;;;;;5069232;28;20048;-60
2022/09/05 05:50:34;;;;;;;11.77;9.33;;;;;;;;;;5067529;28;20048;-60
2022/09/05 05:53:18;;;;;;;14.57;9.83;;;;;;;;;;5067919;28;20452;-60
2022/09/05 05:56:08;;;;;;;12.87;9.93;;;;;;;;;;5068481;28;20612;-60
2022/09/05 05:58:37;;;;;;;16.83;10.10;;;;;;;;;;5069382;28;20041;-60
2022/09/05 06:01:12;;;;;;;12.37;10.47;;;;;;;;;;5068056;28;20044;-60
2022/09/05 06:04:05;;;;;;;10.67;9.57;;;;;;;;;;5069500;28;20049;-60
2022/09/05 06:06:43;;;;;;;11.10;10.00;;;;;;;;;;5059397;28;20096;-61
2022/09/05 06:09:24;;;;;;;11.37;9.17;;;;;;;;;;5068294;28;20056;-61
2022/09/05 06:12:10;;;;;;;12.17;9.70;;;;;;;;;;5067873;28;20540;-60
2022/09/05 06:14:55;;;;;;;14.87;9.57;;;;;;;;;;5063673;28;20049;-61
2022/09/05 06:17:53;;;;;;;11.20;9.40;;;;;;;;;;5061029;28;20048;-61
2022/09/05 06:20:42;;;;;;;10.50;9.10;;;;;;;;;;5030486;28;20056;-60
2022/09/05 06:23:23;;;;;;;13.00;9.73;;;;;;;;;;5069010;28;20040;-61
2022/09/05 06:25:50;;;;;;;10.70;9.60;;;;;;;;;;5061037;28;20098;-61
2022/09/05 06:28:16;;;;;;;17.00;10.00;;;;;;;;;;5069609;28;20052;-61
2022/09/05 06:30:49;;;;;;;12.27;10.53;;;;;;;;;;5069650;28;20077;-61
2022/09/05 06:33:24;;;;;;;10.57;9.50;;;;;;;;;;5066719;28;20059;-61
2022/09/05 06:35:59;;;;;;;17.50;9.67;;;;;;;;;;5063406;28;20652;-61
2022/09/05 06:38:28;;;;;;;13.60;9.73;;;;;;;;;;5068214;28;20088;-60
2022/09/05 06:41:08;;;;;;;12.57;9.83;;;;;;;;;;5068504;28;20348;-60
2022/09/05 06:43:34;;;;;;;13.20;9.40;;;;;;;;;;5068743;28;20131;-61
2022/09/05 06:46:05;;;;;;;9.97;8.97;;;;;;;;;;5068140;28;20041;-60
2022/09/05 06:48:36;;;;;;;13.90;8.10;;;;;;;;;;5068058;28;20049;-61
2022/09/05 06:51:06;;;;;;;9.60;8.47;;;;;;;;;;5068024;28;20383;-61
2022/09/05 06:53:39;;;;;;;11.47;9.23;;;;;;;;;;5067887;28;20052;-61
2022/09/05 06:56:05;;;;;;;13.07;8.63;;;;;;;;;;5068376;28;20457;-61
2022/09/05 06:58:50;;;;;;;12.57;8.80;;;;;;;;;;5068380;28;20041;-61
2022/09/05 07:01:21;;;;;;;12.37;8.80;;;;;;;;;;5068225;28;20407;-61
2022/09/05 07:04:11;;;;;;;15.10;7.10;;;;;;;;;;5059685;28;20515;-60
2022/09/05 07:06:45;;;;;;;12.47;7.23;;;;;;;;;;5067929;28;20186;-61
2022/09/05 07:09:20;;;;;;;9.57;6.47;;;;;;;;;;5063231;28;20364;-61
2022/09/05 07:11:52;;;;;;;8.10;6.03;;;;;;;;;;5066168;28;20060;-61
2022/09/05 07:14:21;;;;;;;8.07;6.33;;;;;;;;;;5059314;28;20600;-61
2022/09/05 07:16:48;;;;;;;8.70;6.40;;;;;;;;;;5067615;28;20530;-61
2022/09/05 07:19:25;;;;;;;9.83;6.93;;;;;;;;;;5057109;28;20155;-60
2022/09/05 07:22:00;;;;;;;9.83;5.50;;;;;;;;;;5064992;28;20053;-60
2022/09/05 07:24:27;;;;;;;7.87;5.77;;;;;;;;;;5068460;28;20048;-61
2022/09/05 07:26:54;;;;;;;7.30;6.27;;;;;;;;;;5059827;28;20040;-61
2022/09/05 07:29:22;;;;;;;9.20;5.97;;;;;;;;;;5056426;28;20063;-61
2022/09/05 07:31:51;;;;;;;8.20;5.60;;;;;;;;;;5063514;28;20444;-61
2022/09/05 07:34:37;;;;;;;6.87;6.17;;;;;;;;;;5059371;28;20475;-61
2022/09/05 07:37:09;;;;;;;9.00;5.27;;;;;;;;;;5059522;28;20135;-61
2022/09/05 07:39:39;;;;;;;9.17;5.63;;;;;;;;;;5051591;28;20040;-61
2022/09/05 07:42:07;;;;;;;9.97;6.20;;;;;;;;;;5067211;28;20049;-61
2022/09/05 07:44:35;;;;;;;10.87;5.47;;;;;;;;;;5066745;28;20059;-61
2022/09/05 07:47:06;;;;;;;7.70;6.07;;;;;;;;;;5066916;28;20135;-60
2022/09/05 07:49:34;;;;;;;7.20;6.13;;;;;;;;;;5058565;28;20491;-61
2022/09/05 07:52:12;;;;;;;6.90;5.80;;;;;;;;;;5061851;28;20041;-61
2022/09/05 07:54:40;;;;;;;10.37;5.40;;;;;;;;;;5055808;28;20063;-60
2022/09/05 07:57:08;;;;;;;7.20;5.70;;;;;;;;;;5061115;28;20044;-61
2022/09/05 07:59:37;;;;;;;8.53;5.17;;;;;;;;;;5058434;28;20121;-61
2022/09/05 08:02:03;;;;;;;8.50;6.03;;;;;;;;;;5067385;28;20074;-61
2022/09/05 08:04:29;;;;;;;8.13;5.67;;;;;;;;;;5058598;28;20415;-61
2022/09/05 08:06:57;;;;;;;12.33;6.57;;;;;;;;;;5058040;28;20057;-60
2022/09/05 08:09:55;;;;;;;8.40;6.53;;;;;;;;;;5066997;28;20044;-61
2022/09/05 08:12:25;;;;;;;14.17;6.10;;;;;;;;;;5025220;28;20052;-61
2022/09/05 08:14:57;;;;;;;9.93;7.00;;;;;;;;;;5062316;28;20898;-60
2022/09/05 08:17:25;;;;;;;9.27;6.40;;;;;;;;;;5070684;28;20040;-61
2022/09/05 08:19:53;;;;;;;8.57;5.77;;;;;;;;;;5062184;28;20511;-61
2022/09/05 08:22:21;;;;;;;11.23;6.60;;;;;;;;;;5066989;28;20095;-61
2022/09/05 08:25:07;;;;;;;10.93;6.60;;;;;;;;;;5066924;28;20500;-61
2022/09/05 08:27:54;;;;;;;7.97;6.03;;;;;;;;;;5082778;28;20128;-61
2022/09/05 08:30:20;;;;;;;9.50;6.20;;;;;;;;;;5055328;28;20421;-61
2022/09/05 08:32:53;;;;;;;7.80;6.20;;;;;;;;;;5062273;28;20063;-61
2022/09/05 08:35:19;;;;;;;7.53;5.45;;;;;;;;;;5070510;28;20056;-61
2022/09/05 08:37:46;;;;;;;7.97;4.97;;;;;;;;;;5070233;28;20047;-61
2022/09/05 08:40:24;;;;;;;9.80;6.43;;;;;;;;;;5062077;28;20052;-61
2022/09/05 08:42:56;;;;;;;7.85;5.50;;;;;;;;;;5070301;28;20482;-61
2022/09/05 08:45:25;;;;;;;7.95;6.10;;;;;;;;;;5060198;28;20459;-61
2022/09/05 08:47:51;;;;;;;7.63;5.85;;;;;;;;;;5063643;28;20422;-61
2022/09/05 08:50:30;;;;;;;6.70;6.00;;;;;;;;;;5060439;28;20407;-61
2022/09/05 08:53:09;;;;;;;14.13;5.68;;;;;;;;;;5063854;28;20052;-61
2022/09/05 08:55:35;;;;;;;11.57;4.93;;;;;;;;;;5060400;28;20056;-62
2022/09/05 08:58:05;;;;;;;12.75;5.30;;;;;;;;;;5070121;28;20106;-61
2022/09/05 09:00:40;;;;;;;13.77;5.57;;;;;;;;;;5069745;28;20043;-61
2022/09/05 09:03:13;;;;;;;7.28;5.13;;;;;;;;;;5069229;28;20072;-61
2022/09/05 09:06:06;;;;;;;7.05;4.85;;;;;;;;;;5069656;28;20043;-61
2022/09/05 09:08:58;;;;;;;7.30;5.10;;;;;;;;;;5069810;28;20136;-61
2022/09/05 09:11:43;;;;;;;8.40;5.25;;;;;;;;;;5053645;28;20056;-61
2022/09/05 09:14:15;;;;;;;6.07;4.93;;;;;;;;;;5053631;28;20488;-61
2022/09/05 09:16:52;;;;;;;11.40;5.90;;;;;;;;;;5062008;28;20033;-61
2022/09/05 09:19:23;;;;;;;16.38;5.28;;;;;;;;;;5063094;28;20076;-61
2022/09/05 09:21:58;;;;;;;8.25;4.70;;;;;;;;;;5068886;28;20584;-61
2022/09/05 09:24:32;;;;;;;6.10;4.20;;;;;;;;;;5067919;28;20040;-61
2022/09/05 09:27:02;;;;;;;14.70;5.03;;;;;;;;;;5061238;28;20392;-61
2022/09/05 09:29:33;;;;;;;8.95;3.95;;;;;;;;;;5061346;28;20036;-61
2022/09/05 09:31:59;;;;;;;5.30;4.45;;;;;;;;;;5052803;28;20049;-61
2022/09/05 09:34:25;;;;;;;9.13;5.03;;;;;;;;;;5069367;28;20052;-61
2022/09/05 09:37:00;;;;;;;8.68;3.50;;;;;;;;;;5069412;28;20483;-61
2022/09/05 09:39:46;;;;;;;6.82;3.80;;;;;;;;;;5057329;28;20422;-61
2022/09/05 09:42:27;;;;;;;3.85;3.10;;;;;;;;;;5047473;28;20556;-61
2022/09/05 09:45:15;;;;;;;7.47;4.07;;;;;;;;;;5065363;28;20040;-61
2022/09/05 09:47:57;;;;;;;6.28;3.58;;;;;;;;;;5057828;28;20091;-61
2022/09/05 09:50:29;;;;;;;8.02;4.15;;;;;;;;;;5061365;28;20044;-61
2022/09/05 09:53:24;;;;;;;7.75;3.67;;;;;;;;;;5062047;28;20210;-61
2022/09/05 09:56:08;;;;;;;5.10;2.83;;;;;;;;;;5048036;28;20424;-61
2022/09/05 09:58:53;;;;;;;6.70;3.53;;;;;;;;;;5057217;28;20524;-61
2022/09/05 10:01:30;;;;;;;7.00;3.40;;;;;;;;;;5067452;28;20041;-61
2022/09/05 10:04:06;;;;;;;6.85;3.10;;;;;;;;;;5069072;28;20139;-61
2022/09/05 10:06:42;;;;;;;6.25;3.40;;;;;;;;;;5057005;28;20132;-61
2022/09/05 10:09:10;;;;;;;6.30;3.20;;;;;;;;;;5065549;28;20056;-62
2022/09/05 10:11:37;;;;;;;5.75;3.10;;;;;;;;;;5063719;28;20036;-61
2022/09/05 10:14:24;;;;;;;6.90;3.00;;;;;;;;;;5060310;28;20063;-61
2022/09/05 10:16:52;;;;;;;5.63;2.97;;;;;;;;;;5041056;28;20056;-61
2022/09/05 10:19:22;;;;;;;3.40;2.80;;;;;;;;;;5060476;28;20207;-62
2022/09/05 10:21:53;;;;;;;7.90;2.83;;;;;;;;;;5068691;28;20155;-61
2022/09/05 10:24:37;;;;;;;4.37;3.30;;;;;;;;;;5059546;28;20044;-61
2022/09/05 10:27:03;;;;;;;7.43;3.75;;;;;;;;;;5056863;28;21053;-62
2022/09/05 10:29:39;;;;;;;10.52;2.95;;;;;;;;;;5066522;28;20129;-61
2022/09/05 10:32:07;;;;;;;5.65;2.78;;;;;;;;;;5068318;28;20052;-62
2022/09/05 10:34:44;;;;;;;9.05;3.30;;;;;;;;;;5059478;28;20048;-61
2022/09/05 10:37:11;;;;;;;3.13;2.60;;;;;;;;;;5061179;28;20045;-62
2022/09/05 10:39:39;;;;;;;4.95;3.10;;;;;;;;;;5066720;28;20044;-61
2022/09/05 10:42:24;;;;;;;6.00;2.40;;;;;;;;;;5062936;28;20048;-61
2022/09/05 10:44:57;;;;;;;5.78;2.35;;;;;;;;;;5051368;28;20070;-62
2022/09/05 10:47:29;;;;;;;11.05;2.85;;;;;;;;;;5068171;28;20056;-61
2022/09/05 10:50:12;;;;;;;2.50;1.90;;;;;;;;;;5060261;28;20053;-61
2022/09/05 10:52:54;;;;;;;4.43;2.60;;;;;;;;;;5067294;28;20056;-62
2022/09/05 10:55:25;;;;;;;5.35;2.30;;;;;;;;;;5068172;28;20053;-61
2022/09/05 10:58:03;;;;;;;9.70;2.90;;;;;;;;;;5067446;28;20078;-61
2022/09/05 11:00:37;;;;;;;7.15;2.50;;;;;;;;;;5067974;28;20076;-61
2022/09/05 11:03:04;;;;;;;6.75;2.70;;;;;;;;;;5056778;28;20381;-62
2022/09/05 11:05:36;;;;;;;5.18;2.70;;;;;;;;;;5056237;28;20041;-61
2022/09/05 11:08:02;;;;;;;7.15;2.58;;;;;;;;;;5059694;28;20475;-62
2022/09/05 11:10:31;;;;;;;5.32;2.83;;;;;;;;;;5059345;28;20056;-62
2022/09/05 11:13:16;;;;;;;9.98;2.40;;;;;;;;;;5067103;28;20052;-62
2022/09/05 11:16:04;;;;;;;4.00;1.85;;;;;;;;;;5066893;28;20164;-62
2022/09/05 11:18:32;;;;;;;7.05;2.33;;;;;;;;;;5062968;28;20548;-62
2022/09/05 11:21:07;;;;;;;4.25;2.20;;;;;;;;;;5059231;28;20060;-62
2022/09/05 11:23:53;;;;;;;3.08;1.60;;;;;;;;;;5059584;28;20119;-61
2022/09/05 11:26:39;;;;;;;4.25;1.58;;;;;;;;;;5063033;28;20096;-62
2022/09/05 11:29:08;;;;;;;2.97;1.60;;;;;;;;;;5066647;28;20052;-62
2022/09/05 11:31:40;;;;;;;2.90;1.75;;;;;;;;;;5066651;28;20040;-62
2022/09/05 11:34:42;;;;;;;5.63;1.33;;;;;;;;;;5067333;28;20090;-62
2022/09/05 11:37:37;;;;;;;2.83;1.85;;;;;;;;;;5013983;28;20342;-62
2022/09/05 11:40:09;;;;;;;3.28;1.90;;;;;;;;;;5056182;28;20079;-62
2022/09/05 11:42:47;;;;;;;3.22;1.70;;;;;;;;;;5066851;28;20044;-61
2022/09/05 11:45:32;;;;;;;3.47;1.50;;;;;;;;;;5066871;28;20887;-61
2022/09/05 11:47:58;;;;;;;12.88;3.40;;;;;;;;;;5066416;28;20044;-61
2022/09/05 11:50:42;;;;;;;6.65;1.83;;;;;;;;;;5066678;28;20518;-61
2022/09/05 11:53:28;;;;;;;5.70;1.65;;;;;;;;;;5058230;28;20040;-61
2022/09/05 11:55:57;;;;;;;3.83;2.00;;;;;;;;;;5052686;28;20049;-61
2022/09/05 11:58:30;;;;;;;5.38;1.90;;;;;;;;;;5058929;28;20111;-62
2022/09/05 12:01:07;;;;;;;3.03;2.00;;;;;;;;;;5067918;28;20052;-62
2022/09/05 12:03:51;;;;;;;3.72;1.70;;;;;;;;;;5062876;28;20509;-62
2022/09/05 12:06:29;;;;;;;4.43;1.50;;;;;;;;;;5063628;28;20052;-62
2022/09/05 12:08:55;;;;;;;2.65;1.70;;;;;;;;;;5055380;28;20135;-62
2022/09/05 12:11:24;;;;;;;6.43;2.17;;;;;;;;;;5065431;28;20055;-61
2022/09/05 12:13:53;;;;;;;3.22;1.52;;;;;;;;;;5066839;28;20387;-61
2022/09/05 12:16:25;;;;;;;3.78;2.00;;;;;;;;;;5058580;28;20545;-61
2022/09/05 12:19:04;;;;;;;4.00;1.77;;;;;;;;;;5066724;28;20048;-62
2022/09/05 12:21:30;;;;;;;3.75;2.05;;;;;;;;;;5058634;28;20048;-62
2022/09/05 12:24:04;;;;;;;3.42;1.42;;;;;;;;;;5066588;28;20072;-62
2022/09/05 12:26:30;;;;;;;3.85;1.60;;;;;;;;;;5066691;28;20041;-62
2022/09/05 12:29:17;;;;;;;3.72;1.88;;;;;;;;;;5066808;28;20056;-62
2022/09/05 12:31:49;;;;;;;6.05;1.77;;;;;;;;;;5050779;28;21009;-62
2022/09/05 12:34:31;;;;;;;3.40;1.70;;;;;;;;;;5066419;28;20506;-62
2022/09/05 12:36:59;;;;;;;6.35;1.70;;;;;;;;;;5055232;28;20056;-62
2022/09/05 12:39:25;;;;;;;5.50;1.55;;;;;;;;;;5055709;28;20515;-62
2022/09/05 12:42:06;;;;;;;4.80;1.52;;;;;;;;;;5066795;28;20429;-62
2022/09/05 12:44:38;;;;;;;3.88;1.73;;;;;;;;;;5056684;28;20084;-62
2022/09/05 12:47:07;;;;;;;4.32;2.15;;;;;;;;;;5055428;28;20051;-62
2022/09/05 12:49:43;;;;;;;3.22;1.58;;;;;;;;;;5056356;28;20045;-62
2022/09/05 12:52:15;;;;;;;4.05;1.92;;;;;;;;;;5057846;28;20040;-62
2022/09/05 12:54:45;;;;;;;1.95;1.27;;;;;;;;;;5066247;28;20171;-62
2022/09/05 12:57:11;;;;;;;3.33;1.50;;;;;;;;;;5066271;28;20474;-62
2022/09/05 12:59:39;;;;;;;3.75;1.60;;;;;;;;;;5068631;28;20044;-62
2022/09/05 13:02:08;;;;;;;6.82;1.60;;;;;;;;;;5069832;28;20040;-62
2022/09/05 13:04:35;;;;;;;3.92;1.40;;;;;;;;;;5069103;28;20041;-62
2022/09/05 13:07:10;;;;;;;2.65;1.25;;;;;;;;;;5062341;28;20040;-62
2022/09/05 13:09:50;;;;;;;2.92;1.50;;;;;;;;;;5069412;28;20049;-62
2022/09/05 13:12:19;;;;;;;2.63;1.35;;;;;;;;;;5069923;28;20170;-62
2022/09/05 13:15:06;;;;;;;4.00;1.63;;;;;;;;;;5060416;28;20053;-62
2022/09/05 13:17:37;;;;;;;4.97;1.60;;;;;;;;;;5069153;28;20041;-62
2022/09/05 13:20:17;;;;;;;5.10;1.80;;;;;;;;;;5066097;28;20160;-62
2022/09/05 13:22:45;;;;;;;3.33;1.40;;;;;;;;;;5066071;28;20396;-61
2022/09/05 13:25:29;;;;;;;4.30;1.63;;;;;;;;;;5057613;28;20118;-61
2022/09/05 13:28:02;;;;;;;5.40;1.50;;;;;;;;;;5068669;28;20051;-62
2022/09/05 13:30:30;;;;;;;3.05;1.48;;;;;;;;;;5069531;28;20184;-62
2022/09/05 13:33:02;;;;;;;3.42;1.48;;;;;;;;;;5069896;28;20041;-62
2022/09/05 13:35:31;;;;;;;4.75;2.00;;;;;;;;;;5061375;28;20050;-61
2022/09/05 13:38:00;;;;;;;4.25;1.60;;;;;;;;;;5061653;28;20087;-61
2022/09/05 13:40:30;;;;;;;3.85;1.40;;;;;;;;;;5069777;28;20040;-61
2022/09/05 13:42:59;;;;;;;3.42;1.90;;;;;;;;;;5067371;28;20148;-61
2022/09/05 13:45:25;;;;;;;4.13;1.58;;;;;;;;;;5058092;28;20045;-61
2022/09/05 13:48:10;;;;;;;4.43;2.05;;;;;;;;;;5066403;28;20084;-61
2022/09/05 13:50:38;;;;;;;3.90;1.50;;;;;;;;;;5065558;28;20044;-61
2022/09/05 13:53:10;;;;;;;1.90;1.10;;;;;;;;;;5069721;28;20057;-61
2022/09/05 13:55:52;;;;;;;4.75;1.73;;;;;;;;;;5069684;28;20036;-61
2022/09/05 13:58:18;;;;;;;5.07;1.55;;;;;;;;;;5065725;28;20045;-61
2022/09/05 14:01:04;;;;;;;2.72;1.30;;;;;;;;;;5068100;28;20090;-61
2022/09/05 14:03:33;;;;;;;3.70;1.38;;;;;;;;;;5065687;28;20116;-61
2022/09/05 14:06:19;;;;;;;3.15;1.40;;;;;;;;;;5068998;28;20059;-61
2022/09/05 14:09:03;;;;;;;6.05;1.60;;;;;;;;;;5069968;28;20059;-61
2022/09/05 14:11:54;;;;;;;4.32;1.60;;;;;;;;;;5054597;28;20055;-61
2022/09/05 14:14:44;;;;;;;4.28;1.50;;;;;;;;;;5053975;28;20041;-61
2022/09/05 14:17:28;;;;;;;6.22;1.58;;;;;;;;;;5060419;28;20075;-61
2022/09/05 14:22:54;;;;;;;5.85;1.50;;;;;;;;;;5063424;28;20123;-62
2022/09/05 14:25:28;;;;;;;2.30;1.40;;;;;;;;;;5065316;28;20049;-61
2022/09/05 14:27:55;;;;;;;5.20;1.38;;;;;;;;;;5064610;28;20069;-61
2022/09/05 14:30:39;;;;;;;5.18;2.08;;;;;;;;;;5062214;28;20051;-62
2022/09/05 14:33:20;;;;;;;3.10;1.30;;;;;;;;;;5059657;28;20079;-61
2022/09/05 14:35:53;;;;;;;2.47;1.43;;;;;;;;;;5060407;28;20036;-61
2022/09/05 14:38:22;;;;;;;2.40;1.30;;;;;;;;;;5064423;28;20299;-62
2022/09/05 14:41:08;;;;;;;2.67;1.45;;;;;;;;;;5059406;28;20445;-61
2022/09/05 14:43:37;;;;;;;3.40;1.25;;;;;;;;;;5066061;28;20044;-61
2022/09/05 14:46:03;;;;;;;5.45;1.50;;;;;;;;;;5062225;28;20044;-61
2022/09/05 14:48:58;;;;;;;3.47;1.75;;;;;;;;;;5065744;28;20083;-62
2022/09/05 14:51:29;;;;;;;4.75;1.60;;;;;;;;;;5037193;28;20503;-61
2022/09/05 14:54:00;;;;;;;4.30;1.50;;;;;;;;;;5061467;28;20059;-61
2022/09/05 14:56:29;;;;;;;3.95;1.30;;;;;;;;;;5062795;28;20302;-61
2022/09/05 14:59:13;;;;;;;2.30;1.50;;;;;;;;;;5064980;28;20557;-61
2022/09/05 15:01:53;;;;;;;3.65;1.55;;;;;;;;;;5062750;28;20570;-61
2022/09/05 15:04:21;;;;;;;4.25;1.38;;;;;;;;;;5064027;28;20040;-62
2022/09/05 15:07:00;;;;;;;4.85;1.90;;;;;;;;;;5064185;28;20045;-61
2022/09/05 15:09:26;;;;;;;3.42;1.52;;;;;;;;;;5062476;28;20459;-61
2022/09/05 15:11:52;;;;;;;3.92;1.45;;;;;;;;;;5064337;28;20076;-61
2022/09/05 15:14:20;;;;;;;11.70;1.80;;;;;;;;;;5063119;28;20086;-61
2022/09/05 15:16:56;;;;;;;11.07;1.83;;;;;;;;;;5068741;28;20058;-61
2022/09/05 15:19:44;;;;;;;5.78;2.05;;;;;;;;;;5068323;28;20411;-61
2022/09/05 15:22:19;;;;;;;3.00;1.52;;;;;;;;;;5068235;28;20048;-61
2022/09/05 15:24:59;;;;;;;3.30;1.60;;;;;;;;;;5069095;28;20048;-61
2022/09/05 15:27:27;;;;;;;5.78;1.42;;;;;;;;;;5068258;28;20102;-61
2022/09/05 15:29:54;;;;;;;5.18;1.35;;;;;;;;;;5061002;28;20566;-61